createdAt,value
2023-01-29T00:02:19.880Z,83.52
2023-01-29T00:04:47.561Z,83.42
2023-01-29T00:07:15.256Z,83.20
2023-01-29T00:09:42.930Z,82.88
2023-01-29T00:12:10.590Z,83.33
2023-01-29T00:14:38.208Z,83.48
2023-01-29T00:17:05.784Z,83.06
2023-01-29T00:19:33.359Z,83.35
2023-01-29T00:22:00.932Z,83.36
2023-01-29T00:24:28.721Z,82.91
2023-01-29T00:26:56.334Z,83.21
2023-01-29T00:29:23.937Z,83.17
2023-01-29T00:31:51.760Z,82.99
2023-01-29T00:34:19.488Z,83.29
2023-01-29T00:36:47.069Z,83.26
2023-01-29T00:39:14.695Z,82.93
2023-01-29T00:42:00.903Z,83.01
2023-01-29T00:44:47.102Z,82.99
2023-01-29T00:47:36.069Z,82.63
2023-01-29T00:50:07.382Z,82.74
2023-01-29T00:52:36.823Z,83.20
2023-01-29T00:55:05.922Z,82.94
2023-01-29T00:57:36.053Z,82.42
2023-01-29T01:00:08.841Z,82.96
2023-01-29T01:02:55.014Z,82.72
2023-01-29T01:05:22.801Z,82.56
2023-01-29T01:07:53.059Z,82.86
2023-01-29T01:10:24.635Z,82.47
2023-01-29T01:12:58.434Z,82.60
2023-01-29T01:15:29.331Z,82.46
2023-01-29T01:17:59.659Z,82.48
2023-01-29T01:20:30.141Z,82.86
2023-01-29T01:22:57.863Z,82.22
2023-01-29T01:25:27.247Z,82.38
2023-01-29T01:30:26.977Z,82.57
2023-01-29T01:32:54.686Z,82.72
2023-01-29T01:35:22.492Z,82.76
2023-01-29T01:37:50.125Z,82.79
2023-01-29T01:40:23.403Z,82.25
2023-01-29T01:42:52.314Z,83.34
2023-01-29T01:45:40.396Z,82.80
2023-01-29T01:48:24.279Z,83.00
2023-01-29T01:50:57.591Z,82.50
2023-01-29T01:53:39.665Z,82.66
2023-01-29T01:56:16.411Z,82.64
2023-01-29T01:58:50.645Z,82.99
2023-01-29T02:01:22.142Z,82.66
2023-01-29T02:04:17.969Z,82.89
2023-01-29T02:07:04.479Z,82.97
2023-01-29T02:09:38.919Z,82.66
2023-01-29T02:12:09.802Z,83.07
2023-01-29T02:14:40.354Z,83.39
2023-01-29T02:17:12.562Z,83.46
2023-01-29T02:20:18.148Z,83.67
2023-01-29T02:23:23.365Z,83.46
2023-01-29T02:26:25.339Z,83.29
2023-01-29T02:29:22.814Z,83.30
2023-01-29T02:32:12.739Z,83.57
2023-01-29T02:35:32.289Z,83.27
2023-01-29T02:38:21.866Z,83.14
2023-01-29T02:41:05.240Z,83.01
2023-01-29T02:43:41.976Z,83.43
2023-01-29T02:46:31.720Z,83.09
2023-01-29T02:49:08.730Z,83.18
2023-01-29T02:51:49.879Z,83.66
2023-01-29T02:54:25.030Z,83.55
2023-01-29T02:56:59.066Z,83.53
2023-01-29T02:59:42.419Z,83.00
2023-01-29T03:02:17.062Z,83.06
2023-01-29T03:04:52.051Z,83.63
2023-01-29T03:07:46.273Z,83.30
2023-01-29T03:10:31.163Z,83.32
2023-01-29T03:13:04.132Z,82.64
2023-01-29T03:15:42.490Z,83.06
2023-01-29T03:18:28.384Z,83.29
2023-01-29T03:21:28.033Z,83.38
2023-01-29T03:24:17.593Z,83.38
2023-01-29T03:27:03.852Z,83.15
2023-01-29T03:29:56.324Z,83.89
2023-01-29T03:32:30.772Z,83.49
2023-01-29T03:35:05.308Z,83.38
2023-01-29T03:37:46.795Z,83.16
2023-01-29T03:40:15.796Z,83.31
2023-01-29T03:43:10.376Z,83.50
2023-01-29T03:46:18.827Z,83.70
2023-01-29T03:48:56.485Z,83.71
2023-01-29T03:51:35.369Z,83.74
2023-01-29T03:54:10.719Z,84.06
2023-01-29T03:56:41.538Z,83.84
2023-01-29T03:59:38.183Z,83.95
2023-01-29T04:02:43.580Z,83.88
2023-01-29T04:05:21.188Z,84.07
2023-01-29T04:08:14.347Z,84.23
2023-01-29T04:10:45.409Z,84.27
2023-01-29T04:13:15.131Z,84.26
2023-01-29T04:15:50.839Z,84.52
2023-01-29T04:18:25.260Z,84.34
2023-01-29T04:21:07.457Z,83.94
2023-01-29T04:23:35.255Z,84.07
2023-01-29T04:26:28.084Z,83.98
2023-01-29T04:29:24.552Z,84.26
2023-01-29T04:32:25.365Z,84.50
2023-01-29T04:34:59.014Z,84.48
2023-01-29T04:37:37.734Z,84.65
2023-01-29T04:40:30.923Z,84.29
2023-01-29T04:43:24.096Z,84.80
2023-01-29T04:46:36.253Z,84.38
2023-01-29T04:49:37.761Z,85.03
2023-01-29T04:52:31.773Z,84.99
2023-01-29T04:55:05.516Z,84.98
2023-01-29T04:57:49.869Z,84.75
2023-01-29T05:00:43.032Z,84.83
2023-01-29T05:03:16.098Z,85.32
2023-01-29T05:05:48.162Z,85.47
2023-01-29T05:08:19.499Z,85.15
2023-01-29T05:10:49.427Z,85.08
2023-01-29T05:13:19.762Z,85.07
2023-01-29T05:15:59.461Z,85.08
2023-01-29T05:18:27.097Z,84.92
2023-01-29T05:20:57.228Z,85.05
2023-01-29T05:23:24.999Z,84.97
2023-01-29T05:25:52.883Z,85.17
2023-01-29T05:28:20.504Z,85.45
2023-01-29T05:30:50.408Z,84.89
2023-01-29T05:33:26.469Z,85.11
2023-01-29T05:35:55.362Z,84.97
2023-01-29T05:38:23.427Z,85.10
2023-01-29T05:40:51.512Z,84.90
2023-01-29T05:43:21.667Z,84.89
2023-01-29T05:45:53.836Z,85.09
2023-01-29T05:48:21.848Z,85.04
2023-01-29T05:50:49.522Z,85.04
2023-01-29T05:53:17.251Z,84.84
2023-01-29T05:55:46.300Z,84.75
2023-01-29T05:58:14.482Z,85.13
2023-01-29T06:00:42.385Z,84.67
2023-01-29T06:03:10.002Z,84.83
2023-01-29T06:05:39.058Z,84.92
2023-01-29T06:08:08.057Z,85.22
2023-01-29T06:10:35.678Z,84.92
2023-01-29T06:13:03.372Z,85.05
2023-01-29T06:15:31.011Z,84.91
2023-01-29T06:17:58.660Z,84.83
2023-01-29T06:20:26.230Z,85.10
2023-01-29T06:22:53.866Z,85.15
2023-01-29T06:25:21.472Z,85.41
2023-01-29T06:27:51.461Z,85.18
2023-01-29T06:30:19.331Z,85.41
2023-01-29T06:32:47.417Z,85.55
2023-01-29T06:35:15.012Z,85.67
2023-01-29T06:37:42.568Z,85.49
2023-01-29T06:40:10.792Z,85.78
2023-01-29T06:42:38.422Z,86.11
2023-01-29T06:45:06.625Z,85.63
2023-01-29T06:47:34.135Z,85.91
2023-01-29T06:50:01.887Z,85.85
2023-01-29T06:52:29.878Z,85.98
2023-01-29T06:54:57.742Z,86.21
2023-01-29T06:57:25.316Z,86.39
2023-01-29T06:59:52.944Z,86.17
2023-01-29T07:02:20.526Z,86.29
2023-01-29T07:04:48.198Z,86.27
2023-01-29T07:07:15.766Z,86.55
2023-01-29T07:09:43.638Z,86.33
2023-01-29T07:12:11.495Z,86.40
2023-01-29T07:14:39.362Z,86.51
2023-01-29T07:17:07.080Z,86.64
2023-01-29T07:19:34.682Z,86.59
2023-01-29T07:22:03.314Z,86.43
2023-01-29T07:24:30.929Z,86.24
2023-01-29T07:26:58.549Z,86.78
2023-01-29T07:29:26.208Z,86.86
2023-01-29T07:31:53.911Z,86.86
2023-01-29T07:34:21.663Z,86.75
2023-01-29T07:36:49.513Z,87.10
2023-01-29T07:39:17.126Z,86.82
2023-01-29T07:41:44.781Z,87.09
2023-01-29T07:44:17.239Z,86.78
2023-01-29T07:46:44.940Z,86.93
2023-01-29T07:49:12.554Z,86.92
2023-01-29T07:51:40.202Z,87.16
2023-01-29T07:54:07.830Z,87.18
2023-01-29T07:56:35.439Z,87.21
2023-01-29T07:59:03.364Z,87.20
2023-01-29T08:01:31.002Z,87.29
2023-01-29T08:03:58.532Z,87.57
2023-01-29T08:06:26.198Z,87.25
2023-01-29T08:08:55.807Z,87.13
2023-01-29T08:11:23.619Z,87.21
2023-01-29T08:13:51.923Z,87.67
2023-01-29T08:16:19.559Z,87.38
2023-01-29T08:18:48.563Z,87.49
2023-01-29T08:21:16.677Z,87.51
2023-01-29T08:23:44.279Z,87.44
2023-01-29T08:26:12.003Z,87.42
2023-01-29T08:28:39.617Z,87.88
2023-01-29T08:31:14.370Z,87.98
2023-01-29T08:33:42.179Z,87.44
2023-01-29T08:36:10.195Z,87.62
2023-01-29T08:38:37.871Z,87.52
2023-01-29T08:41:06.577Z,88.04
2023-01-29T08:43:37.031Z,87.96
2023-01-29T08:46:05.934Z,88.04
2023-01-29T08:48:33.918Z,87.87
2023-01-29T08:51:02.714Z,88.09
2023-01-29T08:53:31.513Z,87.85
2023-01-29T08:55:59.373Z,88.36
2023-01-29T08:58:26.991Z,88.27
2023-01-29T09:00:54.685Z,88.25
2023-01-29T09:03:22.263Z,88.52
2023-01-29T09:05:49.925Z,88.55
2023-01-29T09:08:17.479Z,88.16
2023-01-29T09:10:45.143Z,88.43
2023-01-29T09:13:12.716Z,88.58
2023-01-29T09:15:40.433Z,88.48
2023-01-29T09:18:08.049Z,88.29
2023-01-29T09:20:38.109Z,88.93
2023-01-29T09:23:10.690Z,88.73
2023-01-29T09:25:38.665Z,88.84
2023-01-29T09:28:06.499Z,88.57
2023-01-29T09:30:37.675Z,88.62
2023-01-29T09:33:06.902Z,88.69
2023-01-29T09:35:35.170Z,88.38
2023-01-29T09:38:02.799Z,88.58
2023-01-29T09:40:54.414Z,89.09
2023-01-29T09:43:28.064Z,89.10
2023-01-29T09:46:01.866Z,89.02
2023-01-29T09:48:34.514Z,89.27
2023-01-29T09:51:07.324Z,89.42
2023-01-29T09:53:53.556Z,89.51
2023-01-29T09:56:22.533Z,89.10
2023-01-29T09:58:50.163Z,89.76
2023-01-29T10:01:34.212Z,89.46
2023-01-29T10:04:16.808Z,89.34
2023-01-29T10:06:53.620Z,89.34
2023-01-29T10:09:50.361Z,89.80
2023-01-29T10:12:35.945Z,89.52
2023-01-29T10:15:41.904Z,89.51
2023-01-29T10:18:18.405Z,89.77
2023-01-29T10:20:59.381Z,89.61
2023-01-29T10:23:34.643Z,89.21
2023-01-29T10:26:02.856Z,89.47
2023-01-29T10:28:43.384Z,89.53
2023-01-29T10:31:18.572Z,88.82
2023-01-29T10:34:02.134Z,89.25
2023-01-29T10:36:43.023Z,89.09
2023-01-29T10:39:19.294Z,89.35
2023-01-29T10:42:02.018Z,89.11
2023-01-29T10:45:06.701Z,89.16
2023-01-29T10:48:18.788Z,90.11
2023-01-29T10:51:00.229Z,89.62
2023-01-29T10:53:42.561Z,89.55
2023-01-29T10:56:48.531Z,89.56
2023-01-29T10:59:36.714Z,89.43
2023-01-29T11:02:18.201Z,89.64
2023-01-29T11:04:46.411Z,89.54
2023-01-29T11:07:17.033Z,89.93
2023-01-29T11:10:10.170Z,89.89
2023-01-29T11:12:39.007Z,89.88
2023-01-29T11:15:15.666Z,89.42
2023-01-29T11:18:04.351Z,90.31
2023-01-29T11:20:33.505Z,90.17
2023-01-29T11:23:01.157Z,90.20
2023-01-29T11:25:30.422Z,90.35
2023-01-29T11:28:01.904Z,90.34
2023-01-29T11:30:37.519Z,90.35
2023-01-29T11:33:23.792Z,90.76
2023-01-29T11:35:52.807Z,90.46
2023-01-29T11:38:30.066Z,90.79
2023-01-29T11:41:14.642Z,90.49
2023-01-29T11:43:42.235Z,90.71
2023-01-29T11:46:15.589Z,90.91
2023-01-29T11:48:45.928Z,90.73
2023-01-29T11:51:23.964Z,91.10
2023-01-29T11:53:58.794Z,90.94
2023-01-29T11:56:32.954Z,90.93
2023-01-29T11:59:04.585Z,90.99
2023-01-29T12:01:39.903Z,90.88
2023-01-29T12:04:21.060Z,91.29
2023-01-29T12:06:52.766Z,91.44
2023-01-29T12:09:24.483Z,91.41
2023-01-29T12:11:52.759Z,91.25
2023-01-29T12:14:36.085Z,91.07
2023-01-29T12:17:12.262Z,91.38
2023-01-29T12:19:49.101Z,91.60
2023-01-29T12:22:25.937Z,91.48
2023-01-29T12:25:02.009Z,91.60
2023-01-29T12:27:42.448Z,90.14
2023-01-29T12:30:31.922Z,90.47
2023-01-29T12:33:14.590Z,89.25
2023-01-29T12:35:50.218Z,88.34
2023-01-29T12:38:23.391Z,87.53
2023-01-29T12:40:55.635Z,87.25
2023-01-29T12:43:33.486Z,86.58
2023-01-29T12:46:02.355Z,85.66
2023-01-29T12:48:42.764Z,84.10
2023-01-29T12:51:18.803Z,83.00
2023-01-29T12:54:10.323Z,82.08
2023-01-29T12:56:47.351Z,81.36
2023-01-29T12:59:29.142Z,80.78
2023-01-29T13:02:24.490Z,78.86
2023-01-29T13:05:05.797Z,76.89
2023-01-29T13:07:46.694Z,75.97
2023-01-29T13:10:19.553Z,75.91
2023-01-29T13:12:57.524Z,75.23
2023-01-29T13:15:35.160Z,75.57
2023-01-29T13:18:30.950Z,75.27
2023-01-29T13:21:00.701Z,75.51
2023-01-29T13:23:38.395Z,75.27
2023-01-29T13:26:06.441Z,74.80
2023-01-29T13:28:34.401Z,74.92
2023-01-29T13:31:23.433Z,74.45
2023-01-29T13:34:10.124Z,74.95
2023-01-29T13:36:45.854Z,74.78
2023-01-29T13:39:19.398Z,74.69
2023-01-29T13:41:47.203Z,75.26
2023-01-29T13:44:28.259Z,74.77
2023-01-29T13:47:05.413Z,74.85
2023-01-29T13:49:47.147Z,74.95
2023-01-29T13:52:44.737Z,74.24
2023-01-29T13:55:15.680Z,74.46
2023-01-29T13:57:46.482Z,74.52
2023-01-29T14:00:25.145Z,74.70
2023-01-29T14:02:55.786Z,74.93
2023-01-29T14:05:32.324Z,74.38
2023-01-29T14:08:01.280Z,74.75
2023-01-29T14:10:34.203Z,75.10
2023-01-29T14:13:04.879Z,74.97
2023-01-29T14:15:35.430Z,75.26
2023-01-29T14:18:03.077Z,75.36
2023-01-29T14:20:47.405Z,75.69
2023-01-29T14:23:41.495Z,76.15
2023-01-29T14:26:29.298Z,76.14
2023-01-29T14:29:29.070Z,76.05
2023-01-29T14:32:12.728Z,77.10
2023-01-29T14:34:48.096Z,76.62
2023-01-29T14:37:15.602Z,77.19
2023-01-29T14:39:46.176Z,77.72
2023-01-29T14:42:20.000Z,78.33
2023-01-29T14:45:09.257Z,79.22
2023-01-29T14:47:36.787Z,80.17
2023-01-29T14:50:30.049Z,80.81
2023-01-29T14:53:24.983Z,81.60
2023-01-29T14:56:20.304Z,82.23
2023-01-29T14:58:53.917Z,82.73
2023-01-29T15:01:40.508Z,83.29
2023-01-29T15:04:12.177Z,83.86
2023-01-29T15:06:53.116Z,84.74
2023-01-29T15:09:35.966Z,85.31
2023-01-29T15:12:38.008Z,86.03
2023-01-29T15:15:31.396Z,86.46
2023-01-29T15:18:17.464Z,86.34
2023-01-29T15:20:45.169Z,86.67
2023-01-29T15:23:30.683Z,87.47
2023-01-29T15:26:11.797Z,87.50
2023-01-29T15:28:39.930Z,87.20
2023-01-29T15:31:13.765Z,87.85
2023-01-29T15:33:44.963Z,88.70
2023-01-29T15:36:28.751Z,89.17
2023-01-29T15:39:24.530Z,88.89
2023-01-29T15:42:10.673Z,89.70
2023-01-29T15:44:45.252Z,89.89
2023-01-29T15:47:15.084Z,89.73
2023-01-29T15:49:46.936Z,90.35
2023-01-29T15:52:36.252Z,90.34
2023-01-29T15:55:06.340Z,90.35
2023-01-29T15:57:37.603Z,91.24
2023-01-29T16:00:08.750Z,91.41
2023-01-29T16:02:41.633Z,91.50
2023-01-29T16:05:17.810Z,91.59
2023-01-29T16:07:46.579Z,92.29
2023-01-29T16:10:27.414Z,92.04
2023-01-29T16:17:26.874Z,91.46
2023-01-29T16:20:02.124Z,91.83
2023-01-29T16:22:34.771Z,91.46
2023-01-29T16:25:08.115Z,91.74
2023-01-29T16:27:35.884Z,91.88
2023-01-29T16:30:05.710Z,91.43
2023-01-29T16:32:33.944Z,92.12
2023-01-29T16:35:01.847Z,91.97
2023-01-29T16:37:33.041Z,91.89
2023-01-29T16:40:00.794Z,92.01
2023-01-29T16:42:30.980Z,91.95
2023-01-29T16:45:04.084Z,91.95
2023-01-29T16:47:38.342Z,91.83
2023-01-29T16:50:17.920Z,91.62
2023-01-29T16:52:57.820Z,92.30
2023-01-29T16:55:25.793Z,92.24
2023-01-29T16:57:55.280Z,91.79
2023-01-29T17:00:26.961Z,91.83
2023-01-29T17:03:00.296Z,91.44
2023-01-29T17:05:30.676Z,91.97
2023-01-29T17:07:58.832Z,91.88
2023-01-29T17:10:28.773Z,91.32
2023-01-29T17:12:58.540Z,91.64
2023-01-29T17:15:33.727Z,91.50
2023-01-29T17:18:02.459Z,91.18
2023-01-29T17:20:30.996Z,90.84
2023-01-29T17:22:58.618Z,90.72
2023-01-29T17:25:26.288Z,90.53
2023-01-29T17:27:53.976Z,90.24
2023-01-29T17:30:23.999Z,89.93
2023-01-29T17:32:51.821Z,89.74
2023-01-29T17:35:21.528Z,89.35
2023-01-29T17:37:49.160Z,89.38
2023-01-29T17:40:29.977Z,89.05
2023-01-29T17:42:57.606Z,89.83
2023-01-29T17:45:25.369Z,89.36
2023-01-29T17:47:52.944Z,89.17
2023-01-29T17:50:27.702Z,89.20
2023-01-29T17:52:55.709Z,88.91
2023-01-29T17:55:23.243Z,89.18
2023-01-29T17:57:50.829Z,88.54
2023-01-29T18:00:21.590Z,89.34
2023-01-29T18:02:49.297Z,88.56
2023-01-29T18:05:18.250Z,87.88
2023-01-29T18:07:47.904Z,88.07
2023-01-29T18:10:21.104Z,87.92
2023-01-29T18:12:48.802Z,86.64
2023-01-29T18:15:16.729Z,85.58
2023-01-29T18:17:44.879Z,85.28
2023-01-29T18:20:22.072Z,84.45
2023-01-29T18:22:49.789Z,83.97
2023-01-29T18:25:17.828Z,83.62
2023-01-29T18:27:45.968Z,82.97
2023-01-29T18:30:14.189Z,83.11
2023-01-29T18:32:41.797Z,82.53
2023-01-29T18:35:09.728Z,82.20
2023-01-29T18:37:37.384Z,81.71
2023-01-29T18:40:05.998Z,81.51
2023-01-29T18:42:34.019Z,80.98
2023-01-29T18:45:03.761Z,80.54
2023-01-29T18:47:31.457Z,79.92
2023-01-29T18:49:59.080Z,79.97
2023-01-29T18:52:26.812Z,80.04
2023-01-29T18:54:54.492Z,79.90
2023-01-29T18:58:29.132Z,80.22
2023-01-29T19:00:10.616Z,79.96
2023-01-29T19:02:38.227Z,79.78
2023-01-29T19:05:06.277Z,79.45
2023-01-29T19:07:33.766Z,79.04
2023-01-29T19:10:02.493Z,78.54
2023-01-29T19:12:30.168Z,78.60
2023-01-29T19:14:57.724Z,78.71
2023-01-29T19:17:25.558Z,78.78
2023-01-29T19:19:53.333Z,78.68
2023-01-29T19:22:21.118Z,78.37
2023-01-29T19:24:48.737Z,78.65
2023-01-29T19:27:16.244Z,78.67
2023-01-29T19:29:43.843Z,78.52
2023-01-29T19:32:11.714Z,78.59
2023-01-29T19:34:39.320Z,78.78
2023-01-29T19:37:06.889Z,78.57
2023-01-29T19:39:34.522Z,78.47
2023-01-29T19:42:02.122Z,78.08
2023-01-29T19:44:29.781Z,78.19
2023-01-29T19:46:57.804Z,77.99
2023-01-29T19:49:26.470Z,78.35
2023-01-29T19:51:56.140Z,78.77
2023-01-29T19:54:23.725Z,78.52
2023-01-29T19:56:51.249Z,78.25
2023-01-29T19:59:19.327Z,78.20
2023-01-29T20:01:47.009Z,78.78
2023-01-29T20:04:15.251Z,78.58
2023-01-29T20:06:43.048Z,78.72
2023-01-29T20:09:11.054Z,78.43
2023-01-29T20:11:38.688Z,78.28
2023-01-29T20:14:06.453Z,78.24
2023-01-29T20:16:34.217Z,78.11
2023-01-29T20:19:14.153Z,78.03
2023-01-29T20:21:46.119Z,78.51
2023-01-29T20:24:13.799Z,78.20
2023-01-29T20:26:41.473Z,78.55
2023-01-29T20:29:09.204Z,78.25
2023-01-29T20:31:36.844Z,78.06
2023-01-29T20:34:04.498Z,77.55
2023-01-29T20:36:32.160Z,77.50
2023-01-29T20:38:59.909Z,77.76
2023-01-29T20:41:27.666Z,78.24
2023-01-29T20:43:55.372Z,78.17
2023-01-29T20:46:24.427Z,78.17
2023-01-29T20:48:54.202Z,78.03
2023-01-29T20:51:22.461Z,77.33
2023-01-29T20:53:50.028Z,77.21
2023-01-29T20:56:18.396Z,77.57
2023-01-29T20:58:59.775Z,77.45
2023-01-29T21:01:27.391Z,77.27
2023-01-29T21:03:55.003Z,77.34
2023-01-29T21:06:22.587Z,77.83
2023-01-29T21:08:50.278Z,77.29
2023-01-29T21:11:18.146Z,77.57
2023-01-29T21:13:46.992Z,78.01
2023-01-29T21:16:14.635Z,77.65
2023-01-29T21:18:42.254Z,77.67
2023-01-29T21:21:09.947Z,78.07
2023-01-29T21:23:37.521Z,77.95
2023-01-29T21:26:06.542Z,77.14
2023-01-29T21:28:35.046Z,77.37
2023-01-29T21:31:08.062Z,77.85
2023-01-29T21:33:36.309Z,77.10
2023-01-29T21:36:06.704Z,77.89
2023-01-29T21:38:34.357Z,76.85
2023-01-29T21:41:04.591Z,76.69
2023-01-29T21:43:32.357Z,76.77
2023-01-29T21:46:03.984Z,76.81
2023-01-29T21:48:31.735Z,76.73
2023-01-29T21:50:59.329Z,76.82
2023-01-29T21:53:27.214Z,75.93
2023-01-29T21:56:00.356Z,75.86
2023-01-29T21:58:28.279Z,75.93
2023-01-29T22:00:56.197Z,76.33
2023-01-29T22:03:23.922Z,77.28
2023-01-29T22:05:51.610Z,77.96
2023-01-29T22:08:20.623Z,77.97
2023-01-29T22:10:48.789Z,77.93
2023-01-29T22:13:16.475Z,79.27
2023-01-29T22:15:44.042Z,79.32
2023-01-29T22:18:11.580Z,79.31
2023-01-29T22:20:39.255Z,79.45
2023-01-29T22:23:06.889Z,80.31
2023-01-29T22:25:34.742Z,79.90
2023-01-29T22:28:02.317Z,80.24
2023-01-29T22:30:29.916Z,80.44
2023-01-29T22:32:57.481Z,80.58
2023-01-29T22:35:25.032Z,80.43
2023-01-29T22:37:52.675Z,80.80
2023-01-29T22:40:20.772Z,81.06
2023-01-29T22:42:48.466Z,81.12
2023-01-29T22:45:16.179Z,80.69
2023-01-29T22:47:43.742Z,81.58
2023-01-29T22:50:12.035Z,81.84
2023-01-29T22:52:42.589Z,82.12
2023-01-29T22:55:11.624Z,82.43
2023-01-29T22:57:39.928Z,81.93
2023-01-29T23:00:10.870Z,82.60
2023-01-29T23:02:38.581Z,82.99
2023-01-29T23:05:06.777Z,83.97
2023-01-29T23:07:34.698Z,83.88
2023-01-29T23:10:02.284Z,84.41
2023-01-29T23:12:29.965Z,84.73
2023-01-29T23:14:57.536Z,84.45
2023-01-29T23:17:25.217Z,84.64
2023-01-29T23:19:52.811Z,84.81
2023-01-29T23:22:20.433Z,85.94
2023-01-29T23:24:48.000Z,85.81
2023-01-29T23:27:15.650Z,86.18
2023-01-29T23:29:45.006Z,86.21
2023-01-29T23:32:15.747Z,85.80
2023-01-29T23:34:43.319Z,85.93
2023-01-29T23:37:13.939Z,86.24
2023-01-29T23:39:41.459Z,85.68
2023-01-29T23:42:09.181Z,85.44
2023-01-29T23:44:37.014Z,85.44
2023-01-29T23:47:05.030Z,85.52
2023-01-29T23:49:32.671Z,84.65
2023-01-29T23:52:00.327Z,84.78
2023-01-29T23:54:27.965Z,85.67
2023-01-29T23:56:55.597Z,85.77
2023-01-29T23:59:23.626Z,85.85
